sensor_id;sensor_type;location;lat;lon;timestamp;pressure;altitude;pressure_sealevel;temperature;humidity
77161;BME280;66135;0.000;0.000;2024-02-26T00:01:49;99658.31;;;19.12;60.63
77161;BME280;66135;0.000;0.000;2024-02-26T00:04:15;99664.13;;;19.09;60.73
77161;BME280;66135;0.000;0.000;2024-02-26T00:06:40;99665.41;;;19.06;60.79
77161;BME280;66135;0.000;0.000;2024-02-26T00:09:07;99661.63;;;19.07;60.49
77161;BME280;66135;0.000;0.000;2024-02-26T00:11:32;99664.34;;;19.07;60.59
77161;BME280;66135;0.000;0.000;2024-02-26T00:13:58;99663.53;;;19.07;60.40
77161;BME280;66135;0.000;0.000;2024-02-26T00:16:23;99661.84;;;19.06;60.47
77161;BME280;66135;0.000;0.000;2024-02-26T00:18:49;99663.75;;;19.05;60.35
77161;BME280;66135;0.000;0.000;2024-02-26T00:21:14;99661.44;;;19.02;60.56
77161;BME280;66135;0.000;0.000;2024-02-26T00:23:40;99654.75;;;19.05;60.42
77161;BME280;66135;0.000;0.000;2024-02-26T00:26:05;99661.44;;;19.02;60.36
77161;BME280;66135;0.000;0.000;2024-02-26T00:28:31;99652.66;;;19.00;60.22
77161;BME280;66135;0.000;0.000;2024-02-26T00:30:56;99654.34;;;19.01;60.32
77161;BME280;66135;0.000;0.000;2024-02-26T00:33:22;99661.66;;;19.01;60.10
77161;BME280;66135;0.000;0.000;2024-02-26T00:35:48;99656.44;;;18.99;60.65
77161;BME280;66135;0.000;0.000;2024-02-26T00:38:14;99652.66;;;19.00;60.16
77161;BME280;66135;0.000;0.000;2024-02-26T00:40:39;99651.00;;;18.99;59.83
77161;BME280;66135;0.000;0.000;2024-02-26T00:43:06;99651.63;;;19.01;59.88
77161;BME280;66135;0.000;0.000;2024-02-26T00:45:31;99643.28;;;18.96;59.91
77161;BME280;66135;0.000;0.000;2024-02-26T00:47:57;99644.50;;;19.00;59.97
77161;BME280;66135;0.000;0.000;2024-02-26T00:50:23;99640.78;;;18.95;59.97
77161;BME280;66135;0.000;0.000;2024-02-26T00:52:48;99634.50;;;18.94;59.87
77161;BME280;66135;0.000;0.000;2024-02-26T00:55:14;99637.22;;;18.94;59.81
77161;BME280;66135;0.000;0.000;2024-02-26T00:57:39;99637.22;;;18.88;59.89
77161;BME280;66135;0.000;0.000;2024-02-26T01:00:06;99637.84;;;18.90;59.74
77161;BME280;66135;0.000;0.000;2024-02-26T01:02:34;99640.13;;;18.86;60.01
77161;BME280;66135;0.000;0.000;2024-02-26T01:04:59;99642.03;;;18.86;60.05
77161;BME280;66135;0.000;0.000;2024-02-26T01:07:25;99638.47;;;18.85;59.91
77161;BME280;66135;0.000;0.000;2024-02-26T01:09:50;99648.28;;;18.86;59.68
77161;BME280;66135;0.000;0.000;2024-02-26T01:12:15;99643.91;;;18.85;59.62
77161;BME280;66135;0.000;0.000;2024-02-26T01:14:40;99643.28;;;18.83;59.99
77161;BME280;66135;0.000;0.000;2024-02-26T01:17:06;99653.69;;;18.80;59.97
77161;BME280;66135;0.000;0.000;2024-02-26T01:19:31;99656.84;;;18.77;60.05
77161;BME280;66135;0.000;0.000;2024-02-26T01:21:56;99654.34;;;18.75;59.94
77161;BME280;66135;0.000;0.000;2024-02-26T01:24:22;99652.44;;;18.76;60.16
77161;BME280;66135;0.000;0.000;2024-02-26T01:26:47;99662.28;;;18.77;60.01
77161;BME280;66135;0.000;0.000;2024-02-26T01:29:12;99660.19;;;18.72;60.14
77161;BME280;66135;0.000;0.000;2024-02-26T01:31:38;99668.94;;;18.74;60.01
77161;BME280;66135;0.000;0.000;2024-02-26T01:34:03;99666.44;;;18.73;60.18
77161;BME280;66135;0.000;0.000;2024-02-26T01:36:28;99663.72;;;18.73;60.15
77161;BME280;66135;0.000;0.000;2024-02-26T01:38:54;99668.53;;;18.77;59.82
77161;BME280;66135;0.000;0.000;2024-02-26T01:41:19;99677.06;;;18.74;59.96
77161;BME280;66135;0.000;0.000;2024-02-26T01:43:44;99676.69;;;18.77;59.66
77161;BME280;66135;0.000;0.000;2024-02-26T01:46:11;99678.13;;;18.73;59.83
77161;BME280;66135;0.000;0.000;2024-02-26T01:48:39;99679.19;;;18.72;59.80
77161;BME280;66135;0.000;0.000;2024-02-26T01:51:05;99682.91;;;18.71;59.55
77161;BME280;66135;0.000;0.000;2024-02-26T01:53:31;99678.53;;;18.70;59.63
77161;BME280;66135;0.000;0.000;2024-02-26T01:55:56;99676.25;;;18.74;59.39
77161;BME280;66135;0.000;0.000;2024-02-26T01:58:22;99682.69;;;18.73;59.98
77161;BME280;66135;0.000;0.000;2024-02-26T02:00:48;99678.53;;;18.70;59.85
77161;BME280;66135;0.000;0.000;2024-02-26T02:03:14;99683.97;;;18.70;59.61
77161;BME280;66135;0.000;0.000;2024-02-26T02:05:39;99681.25;;;18.70;59.74
77161;BME280;66135;0.000;0.000;2024-02-26T02:08:08;99686.06;;;18.68;59.51
77161;BME280;66135;0.000;0.000;2024-02-26T02:10:34;99678.13;;;18.67;59.63
77161;BME280;66135;0.000;0.000;2024-02-26T02:12:59;99677.28;;;18.66;59.64
77161;BME280;66135;0.000;0.000;2024-02-26T02:15:25;99670.59;;;18.62;59.56
77161;BME280;66135;0.000;0.000;2024-02-26T02:17:50;99668.94;;;18.61;59.50
77161;BME280;66135;0.000;0.000;2024-02-26T02:20:17;99663.50;;;18.61;59.87
77161;BME280;66135;0.000;0.000;2024-02-26T02:22:45;99673.72;;;18.59;59.50
77161;BME280;66135;0.000;0.000;2024-02-26T02:25:11;99671.84;;;18.60;59.55
77161;BME280;66135;0.000;0.000;2024-02-26T02:27:36;99664.94;;;18.57;59.53
77161;BME280;66135;0.000;0.000;2024-02-26T02:30:03;99664.09;;;18.57;59.71
77161;BME280;66135;0.000;0.000;2024-02-26T02:32:29;99667.88;;;18.56;59.64
77161;BME280;66135;0.000;0.000;2024-02-26T02:34:55;99673.50;;;18.54;59.86
77161;BME280;66135;0.000;0.000;2024-02-26T02:37:21;99678.94;;;18.54;59.58
77161;BME280;66135;0.000;0.000;2024-02-26T02:39:46;99666.38;;;18.53;59.55
77161;BME280;66135;0.000;0.000;2024-02-26T02:42:12;99667.44;;;18.52;59.67
77161;BME280;66135;0.000;0.000;2024-02-26T02:44:37;99666.59;;;18.52;59.81
77161;BME280;66135;0.000;0.000;2024-02-26T02:47:03;99674.94;;;18.50;59.41
77161;BME280;66135;0.000;0.000;2024-02-26T02:49:28;99677.03;;;18.48;59.56
77161;BME280;66135;0.000;0.000;2024-02-26T02:51:53;99669.94;;;18.47;59.84
77161;BME280;66135;0.000;0.000;2024-02-26T02:54:19;99664.50;;;18.47;59.61
77161;BME280;66135;0.000;0.000;2024-02-26T02:56:45;99675.56;;;18.46;59.65
77161;BME280;66135;0.000;0.000;2024-02-26T02:59:10;99673.06;;;18.44;59.75
77161;BME280;66135;0.000;0.000;2024-02-26T03:01:35;99670.16;;;18.46;59.53
77161;BME280;66135;0.000;0.000;2024-02-26T03:04:01;99668.47;;;18.45;59.54
77161;BME280;66135;0.000;0.000;2024-02-26T03:06:26;99673.88;;;18.45;59.61
77161;BME280;66135;0.000;0.000;2024-02-26T03:08:54;99671.38;;;18.43;59.72
77161;BME280;66135;0.000;0.000;2024-02-26T03:11:20;99671.59;;;18.42;59.81
77161;BME280;66135;0.000;0.000;2024-02-26T03:13:45;99669.94;;;18.41;59.76
77161;BME280;66135;0.000;0.000;2024-02-26T03:16:11;99677.22;;;18.40;59.55
77161;BME280;66135;0.000;0.000;2024-02-26T03:18:38;99677.22;;;18.40;59.63
77161;BME280;66135;0.000;0.000;2024-02-26T03:21:03;99673.84;;;18.38;59.67
77161;BME280;66135;0.000;0.000;2024-02-26T03:23:29;99675.91;;;18.36;59.82
77161;BME280;66135;0.000;0.000;2024-02-26T03:25:55;99675.09;;;18.36;59.77
77161;BME280;66135;0.000;0.000;2024-02-26T03:28:21;99677.81;;;18.36;59.87
77161;BME280;66135;0.000;0.000;2024-02-26T03:30:46;99684.47;;;18.33;59.56
77161;BME280;66135;0.000;0.000;2024-02-26T03:33:12;99677.38;;;18.32;59.75
77161;BME280;66135;0.000;0.000;2024-02-26T03:35:37;99680.28;;;18.31;59.48
77161;BME280;66135;0.000;0.000;2024-02-26T03:38:02;99672.16;;;18.31;59.73
77161;BME280;66135;0.000;0.000;2024-02-26T03:40:28;99675.91;;;18.30;59.89
77161;BME280;66135;0.000;0.000;2024-02-26T03:42:53;99680.50;;;18.29;59.69
77161;BME280;66135;0.000;0.000;2024-02-26T03:45:19;99681.75;;;18.27;59.88
77161;BME280;66135;0.000;0.000;2024-02-26T03:47:44;99677.34;;;18.26;59.47
77161;BME280;66135;0.000;0.000;2024-02-26T03:50:10;99679.25;;;18.25;59.74
77161;BME280;66135;0.000;0.000;2024-02-26T03:52:35;99680.06;;;18.26;59.65
77161;BME280;66135;0.000;0.000;2024-02-26T03:55:01;99682.97;;;18.24;59.82
77161;BME280;66135;0.000;0.000;2024-02-26T03:57:26;99679.41;;;18.24;59.68
77161;BME280;66135;0.000;0.000;2024-02-26T03:59:51;99674.22;;;18.22;59.74
77161;BME280;66135;0.000;0.000;2024-02-26T04:02:17;99686.94;;;18.22;59.81
77161;BME280;66135;0.000;0.000;2024-02-26T04:04:45;99685.06;;;18.22;59.83
77161;BME280;66135;0.000;0.000;2024-02-26T04:07:10;99686.09;;;18.21;59.71
77161;BME280;66135;0.000;0.000;2024-02-26T04:09:37;99681.09;;;18.18;59.88
77161;BME280;66135;0.000;0.000;2024-02-26T04:12:02;99685.66;;;18.18;59.79
77161;BME280;66135;0.000;0.000;2024-02-26T04:14:28;99683.97;;;18.17;59.66
77161;BME280;66135;0.000;0.000;2024-02-26T04:16:53;99692.75;;;18.19;59.75
77161;BME280;66135;0.000;0.000;2024-02-26T04:19:19;99687.94;;;18.14;59.83
77161;BME280;66135;0.000;0.000;2024-02-26T04:21:45;99689.81;;;18.14;59.95
77161;BME280;66135;0.000;0.000;2024-02-26T04:24:10;99694.22;;;18.15;59.91
77161;BME280;66135;0.000;0.000;2024-02-26T04:26:37;99694.41;;;18.13;59.81
77161;BME280;66135;0.000;0.000;2024-02-26T04:29:02;99695.25;;;18.14;59.70
77161;BME280;66135;0.000;0.000;2024-02-26T04:31:27;99695.44;;;18.12;59.91
77161;BME280;66135;0.000;0.000;2024-02-26T04:33:52;99702.72;;;18.12;59.83
77161;BME280;66135;0.000;0.000;2024-02-26T04:36:18;99708.16;;;18.12;59.63
77161;BME280;66135;0.000;0.000;2024-02-26T04:38:44;99707.53;;;18.10;59.74
77161;BME280;66135;0.000;0.000;2024-02-26T04:41:09;99703.34;;;18.07;59.86
77161;BME280;66135;0.000;0.000;2024-02-26T04:43:36;99710.84;;;18.05;59.99
77161;BME280;66135;0.000;0.000;2024-02-26T04:46:09;99719.81;;;18.06;59.70
77161;BME280;66135;0.000;0.000;2024-02-26T04:48:35;99714.81;;;18.03;59.95
77161;BME280;66135;0.000;0.000;2024-02-26T04:51:01;99712.91;;;18.03;59.95
77161;BME280;66135;0.000;0.000;2024-02-26T04:53:27;99716.66;;;18.02;59.80
77161;BME280;66135;0.000;0.000;2024-02-26T04:55:52;99718.53;;;18.02;59.98
77161;BME280;66135;0.000;0.000;2024-02-26T04:58:18;99714.97;;;18.01;59.86
77161;BME280;66135;0.000;0.000;2024-02-26T05:00:43;99717.09;;;17.99;59.94
77161;BME280;66135;0.000;0.000;2024-02-26T05:03:09;99714.38;;;17.99;59.67
77161;BME280;66135;0.000;0.000;2024-02-26T05:05:47;99709.97;;;17.98;59.79
77161;BME280;66135;0.000;0.000;2024-02-26T05:08:12;99703.09;;;17.95;59.89
77161;BME280;66135;0.000;0.000;2024-02-26T05:10:38;99711.22;;;17.95;60.01
77161;BME280;66135;0.000;0.000;2024-02-26T05:13:08;99723.94;;;17.95;59.89
77161;BME280;66135;0.000;0.000;2024-02-26T05:15:34;99715.81;;;17.95;59.75
77161;BME280;66135;0.000;0.000;2024-02-26T05:17:59;99733.06;;;17.94;59.82
77161;BME280;66135;0.000;0.000;2024-02-26T05:20:25;99735.19;;;17.92;60.05
77161;BME280;66135;0.000;0.000;2024-02-26T05:22:50;99725.34;;;17.91;60.11
77161;BME280;66135;0.000;0.000;2024-02-26T05:25:16;99730.78;;;17.91;60.14
77161;BME280;66135;0.000;0.000;2024-02-26T05:27:43;99728.28;;;17.89;59.76
77161;BME280;66135;0.000;0.000;2024-02-26T05:30:09;99722.84;;;17.89;59.98
77161;BME280;66135;0.000;0.000;2024-02-26T05:32:35;99731.19;;;17.88;59.78
77161;BME280;66135;0.000;0.000;2024-02-26T05:35:00;99734.91;;;17.87;59.68
77161;BME280;66135;0.000;0.000;2024-02-26T05:37:25;99747.66;;;17.86;59.58
77161;BME280;66135;0.000;0.000;2024-02-26T05:39:51;99746.59;;;17.87;59.63
77161;BME280;66135;0.000;0.000;2024-02-26T05:42:17;99752.84;;;17.88;59.58
77161;BME280;66135;0.000;0.000;2024-02-26T05:44:42;99756.78;;;17.85;59.48
77161;BME280;66135;0.000;0.000;2024-02-26T05:47:08;99757.00;;;17.84;59.45
77161;BME280;66135;0.000;0.000;2024-02-26T05:49:33;99770.75;;;17.82;59.53
77161;BME280;66135;0.000;0.000;2024-02-26T05:51:59;99777.22;;;17.81;59.21
77161;BME280;66135;0.000;0.000;2024-02-26T05:54:24;99776.34;;;17.81;59.43
77161;BME280;66135;0.000;0.000;2024-02-26T05:56:49;99771.16;;;17.79;59.44
77161;BME280;66135;0.000;0.000;2024-02-26T05:59:15;99793.66;;;17.80;59.14
77161;BME280;66135;0.000;0.000;2024-02-26T06:01:41;99777.78;;;17.77;58.89
77161;BME280;66135;0.000;0.000;2024-02-26T06:04:06;99782.75;;;17.73;59.26
77161;BME280;66135;0.000;0.000;2024-02-26T06:06:32;99788.63;;;17.77;59.30
77161;BME280;66135;0.000;0.000;2024-02-26T06:08:57;99781.34;;;17.77;59.12
77161;BME280;66135;0.000;0.000;2024-02-26T06:11:23;99776.13;;;17.76;59.13
77161;BME280;66135;0.000;0.000;2024-02-26T06:13:48;99779.84;;;17.75;59.20
77161;BME280;66135;0.000;0.000;2024-02-26T06:16:13;99791.53;;;17.75;59.00
77161;BME280;66135;0.000;0.000;2024-02-26T06:18:39;99796.31;;;17.73;58.61
77161;BME280;66135;0.000;0.000;2024-02-26T06:21:04;99794.84;;;17.71;58.91
77161;BME280;66135;0.000;0.000;2024-02-26T06:23:30;99794.00;;;17.70;58.76
77161;BME280;66135;0.000;0.000;2024-02-26T06:25:55;99800.84;;;17.66;58.99
77161;BME280;66135;0.000;0.000;2024-02-26T06:28:20;99799.81;;;17.67;58.75
77161;BME280;66135;0.000;0.000;2024-02-26T06:30:46;99801.28;;;17.70;58.63
77161;BME280;66135;0.000;0.000;2024-02-26T06:33:12;99817.72;;;17.68;58.85
77161;BME280;66135;0.000;0.000;2024-02-26T06:35:37;99817.53;;;17.70;58.81
77161;BME280;66135;0.000;0.000;2024-02-26T06:51:45;99826.25;;;17.65;59.13
77161;BME280;66135;0.000;0.000;2024-02-26T06:54:10;99830.19;;;17.63;58.99
77161;BME280;66135;0.000;0.000;2024-02-26T06:56:36;99823.75;;;17.64;59.32
77161;BME280;66135;0.000;0.000;2024-02-26T06:59:01;99826.66;;;17.62;59.12
77161;BME280;66135;0.000;0.000;2024-02-26T07:01:26;99834.78;;;17.62;59.07
77161;BME280;66135;0.000;0.000;2024-02-26T07:03:52;99838.31;;;17.63;59.19
77161;BME280;66135;0.000;0.000;2024-02-26T07:06:17;99840.19;;;17.62;59.22
77161;BME280;66135;0.000;0.000;2024-02-26T07:08:42;99844.78;;;17.62;59.32
77161;BME280;66135;0.000;0.000;2024-02-26T07:11:08;99857.06;;;17.64;59.49
77161;BME280;66135;0.000;0.000;2024-02-26T07:13:34;99856.50;;;17.69;59.27
77161;BME280;66135;0.000;0.000;2024-02-26T07:16:00;99862.56;;;17.71;59.60
77161;BME280;66135;0.000;0.000;2024-02-26T07:18:25;99871.34;;;17.73;59.23
77161;BME280;66135;0.000;0.000;2024-02-26T07:20:50;99871.56;;;17.78;59.53
77161;BME280;66135;0.000;0.000;2024-02-26T07:23:16;99872.84;;;17.82;59.74
77161;BME280;66135;0.000;0.000;2024-02-26T07:25:41;99880.41;;;17.86;59.56
77161;BME280;66135;0.000;0.000;2024-02-26T07:28:07;99887.06;;;17.90;59.58
77161;BME280;66135;0.000;0.000;2024-02-26T07:30:32;99893.16;;;17.92;59.54
77161;BME280;66135;0.000;0.000;2024-02-26T07:32:58;99893.38;;;17.97;59.66
77161;BME280;66135;0.000;0.000;2024-02-26T07:35:23;99903.66;;;18.02;59.51
77161;BME280;66135;0.000;0.000;2024-02-26T07:37:49;99907.00;;;18.04;59.56
77161;BME280;66135;0.000;0.000;2024-02-26T07:40:15;99904.09;;;18.06;59.68
77161;BME280;66135;0.000;0.000;2024-02-26T07:42:40;99909.97;;;18.09;59.52
77161;BME280;66135;0.000;0.000;2024-02-26T07:45:07;99911.88;;;18.15;59.68
77161;BME280;66135;0.000;0.000;2024-02-26T07:47:33;99916.72;;;18.20;59.68
77161;BME280;66135;0.000;0.000;2024-02-26T07:49:59;99912.09;;;18.20;59.77
77161;BME280;66135;0.000;0.000;2024-02-26T07:52:25;99916.09;;;18.24;59.53
77161;BME280;66135;0.000;0.000;2024-02-26T07:54:50;99919.47;;;18.26;59.65
77161;BME280;66135;0.000;0.000;2024-02-26T07:57:15;99920.97;;;18.29;59.63
77161;BME280;66135;0.000;0.000;2024-02-26T07:59:42;99932.63;;;18.29;59.65
77161;BME280;66135;0.000;0.000;2024-02-26T08:05:45;99926.41;;;18.35;59.74
77161;BME280;66135;0.000;0.000;2024-02-26T08:08:10;99936.84;;;18.38;59.95
77161;BME280;66135;0.000;0.000;2024-02-26T08:10:36;99925.81;;;18.40;59.90
77161;BME280;66135;0.000;0.000;2024-02-26T08:13:01;99939.19;;;18.41;59.72
77161;BME280;66135;0.000;0.000;2024-02-26T08:15:33;99937.97;;;18.44;59.92
77161;BME280;66135;0.000;0.000;2024-02-26T08:18:08;99936.72;;;18.46;59.59
77161;BME280;66135;0.000;0.000;2024-02-26T08:20:33;99944.03;;;18.46;59.78
77161;BME280;66135;0.000;0.000;2024-02-26T08:22:59;99947.56;;;18.46;59.80
77161;BME280;66135;0.000;0.000;2024-02-26T08:25:24;99952.63;;;18.49;59.55
77161;BME280;66135;0.000;0.000;2024-02-26T08:27:50;99951.78;;;18.49;59.76
77161;BME280;66135;0.000;0.000;2024-02-26T08:30:15;99961.78;;;18.48;59.78
77161;BME280;66135;0.000;0.000;2024-02-26T08:32:43;99953.63;;;18.48;59.72
77161;BME280;66135;0.000;0.000;2024-02-26T08:35:09;99958.88;;;18.50;59.92
77161;BME280;66135;0.000;0.000;2024-02-26T08:37:34;99962.00;;;18.53;59.75
77161;BME280;66135;0.000;0.000;2024-02-26T08:40:00;99963.72;;;18.54;59.63
77161;BME280;66135;0.000;0.000;2024-02-26T08:42:25;99976.22;;;18.55;59.42
77161;BME280;66135;0.000;0.000;2024-02-26T08:44:51;99973.50;;;18.55;59.57
77161;BME280;66135;0.000;0.000;2024-02-26T08:47:16;99982.28;;;18.57;59.57
77161;BME280;66135;0.000;0.000;2024-02-26T08:49:45;99979.56;;;18.57;59.29
77161;BME280;66135;0.000;0.000;2024-02-26T08:52:11;99982.94;;;18.59;59.57
77161;BME280;66135;0.000;0.000;2024-02-26T08:54:36;99986.50;;;18.60;59.76
77161;BME280;66135;0.000;0.000;2024-02-26T08:57:02;99986.28;;;18.61;59.57
77161;BME280;66135;0.000;0.000;2024-02-26T08:59:28;99993.38;;;18.62;59.86
77161;BME280;66135;0.000;0.000;2024-02-26T09:01:53;99998.00;;;18.62;59.41
77161;BME280;66135;0.000;0.000;2024-02-26T09:04:19;99995.28;;;18.62;59.83
77161;BME280;66135;0.000;0.000;2024-02-26T09:06:44;99998.59;;;18.64;59.79
77161;BME280;66135;0.000;0.000;2024-02-26T09:09:10;100004.66;;;18.66;59.69
77161;BME280;66135;0.000;0.000;2024-02-26T09:11:36;100009.91;;;18.67;59.74
77161;BME280;66135;0.000;0.000;2024-02-26T09:14:01;100010.75;;;18.68;59.70
77161;BME280;66135;0.000;0.000;2024-02-26T09:16:29;100017.22;;;18.67;59.63
77161;BME280;66135;0.000;0.000;2024-02-26T09:18:54;100012.44;;;18.69;59.59
77161;BME280;66135;0.000;0.000;2024-02-26T09:21:23;100024.09;;;18.69;59.66
77161;BME280;66135;0.000;0.000;2024-02-26T09:23:53;100023.91;;;18.71;59.88
77161;BME280;66135;0.000;0.000;2024-02-26T09:26:18;100033.94;;;18.70;59.88
77161;BME280;66135;0.000;0.000;2024-02-26T09:28:44;100027.47;;;18.71;59.92
77161;BME280;66135;0.000;0.000;2024-02-26T09:31:10;100034.59;;;18.72;59.69
77161;BME280;66135;0.000;0.000;2024-02-26T09:33:35;100031.22;;;18.70;59.82
77161;BME280;66135;0.000;0.000;2024-02-26T09:36:01;100033.72;;;18.72;59.63
77161;BME280;66135;0.000;0.000;2024-02-26T09:38:27;100042.72;;;18.72;59.84
77161;BME280;66135;0.000;0.000;2024-02-26T09:40:53;100041.66;;;18.73;59.94
77161;BME280;66135;0.000;0.000;2024-02-26T09:43:21;100054.38;;;18.73;59.64
77161;BME280;66135;0.000;0.000;2024-02-26T09:45:47;100049.81;;;18.73;59.65
77161;BME280;66135;0.000;0.000;2024-02-26T09:48:17;100051.47;;;18.74;59.88
77161;BME280;66135;0.000;0.000;2024-02-26T09:50:43;100065.03;;;18.74;59.73
77161;BME280;66135;0.000;0.000;2024-02-26T09:53:11;100058.59;;;18.75;59.90
77161;BME280;66135;0.000;0.000;2024-02-26T09:55:37;100068.59;;;18.75;59.90
77161;BME280;66135;0.000;0.000;2024-02-26T09:58:04;100065.88;;;18.75;59.93
77161;BME280;66135;0.000;0.000;2024-02-26T10:00:30;100072.81;;;18.77;59.89
77161;BME280;66135;0.000;0.000;2024-02-26T10:03:04;100074.88;;;18.75;60.07
77161;BME280;66135;0.000;0.000;2024-02-26T10:05:31;100081.13;;;18.76;59.95
77161;BME280;66135;0.000;0.000;2024-02-26T10:07:57;100089.09;;;18.77;59.66
77161;BME280;66135;0.000;0.000;2024-02-26T10:10:23;100089.09;;;18.77;59.67
77161;BME280;66135;0.000;0.000;2024-02-26T10:12:49;100091.81;;;18.77;59.95
77161;BME280;66135;0.000;0.000;2024-02-26T10:15:14;100094.53;;;18.77;59.76
77161;BME280;66135;0.000;0.000;2024-02-26T10:17:40;100100.56;;;18.79;59.78
77161;BME280;66135;0.000;0.000;2024-02-26T10:20:16;100112.25;;;18.80;59.88
77161;BME280;66135;0.000;0.000;2024-02-26T10:22:47;100107.69;;;18.80;60.00
77161;BME280;66135;0.000;0.000;2024-02-26T10:25:12;100114.13;;;18.79;59.92
77161;BME280;66135;0.000;0.000;2024-02-26T10:27:40;100113.31;;;18.79;59.75
77161;BME280;66135;0.000;0.000;2024-02-26T10:30:20;100125.81;;;18.80;59.71
77161;BME280;66135;0.000;0.000;2024-02-26T10:32:48;100127.69;;;18.79;59.84
77161;BME280;66135;0.000;0.000;2024-02-26T10:35:15;100113.09;;;18.80;59.90
77161;BME280;66135;0.000;0.000;2024-02-26T10:37:41;100119.38;;;18.81;59.69
77161;BME280;66135;0.000;0.000;2024-02-26T10:40:11;100133.56;;;18.83;60.28
77161;BME280;66135;0.000;0.000;2024-02-26T10:42:36;100145.06;;;18.85;60.25
77161;BME280;66135;0.000;0.000;2024-02-26T10:45:03;100148.63;;;18.85;60.52
77161;BME280;66135;0.000;0.000;2024-02-26T10:47:29;100140.50;;;18.85;60.25
77161;BME280;66135;0.000;0.000;2024-02-26T10:49:56;100154.91;;;18.86;60.25
77161;BME280;66135;0.000;0.000;2024-02-26T10:52:21;100162.00;;;18.87;60.46
77161;BME280;66135;0.000;0.000;2024-02-26T10:54:48;100160.13;;;18.87;60.59
77161;BME280;66135;0.000;0.000;2024-02-26T10:57:15;100169.28;;;18.86;60.70
77161;BME280;66135;0.000;0.000;2024-02-26T10:59:44;100175.56;;;18.87;60.60
77161;BME280;66135;0.000;0.000;2024-02-26T11:02:10;100172.66;;;18.88;60.34
77161;BME280;66135;0.000;0.000;2024-02-26T11:04:36;100172.66;;;18.88;60.69
77161;BME280;66135;0.000;0.000;2024-02-26T11:07:02;100187.06;;;18.89;60.91
77161;BME280;66135;0.000;0.000;2024-02-26T11:09:30;100187.91;;;18.89;60.47
77161;BME280;66135;0.000;0.000;2024-02-26T11:11:57;100184.16;;;18.90;60.97
77161;BME280;66135;0.000;0.000;2024-02-26T11:14:24;100190.44;;;18.91;61.23
77161;BME280;66135;0.000;0.000;2024-02-26T11:16:51;100196.72;;;18.91;61.07
77161;BME280;66135;0.000;0.000;2024-02-26T11:19:16;100183.97;;;18.92;60.75
77161;BME280;66135;0.000;0.000;2024-02-26T11:21:43;100195.88;;;18.91;60.66
77161;BME280;66135;0.000;0.000;2024-02-26T11:24:12;100195.88;;;18.91;60.85
77161;BME280;66135;0.000;0.000;2024-02-26T11:26:43;100205.66;;;18.92;60.99
77161;BME280;66135;0.000;0.000;2024-02-26T11:29:14;100203.81;;;18.92;60.67
77161;BME280;66135;0.000;0.000;2024-02-26T11:31:41;100206.53;;;18.92;60.68
77161;BME280;66135;0.000;0.000;2024-02-26T11:34:07;100210.91;;;18.93;60.92
77161;BME280;66135;0.000;0.000;2024-02-26T11:36:34;100209.25;;;18.92;60.81
77161;BME280;66135;0.000;0.000;2024-02-26T11:39:00;100205.88;;;18.90;61.05
77161;BME280;66135;0.000;0.000;2024-02-26T11:41:25;100215.06;;;18.89;60.71
77161;BME280;66135;0.000;0.000;2024-02-26T11:43:52;100213.38;;;18.88;59.87
77161;BME280;66135;0.000;0.000;2024-02-26T11:46:24;100208.78;;;18.89;60.20
77161;BME280;66135;0.000;0.000;2024-02-26T11:48:50;100204.41;;;18.88;60.49
77161;BME280;66135;0.000;0.000;2024-02-26T11:51:15;100215.88;;;18.90;60.24
77161;BME280;66135;0.000;0.000;2024-02-26T11:53:46;100214.00;;;18.90;60.06
77161;BME280;66135;0.000;0.000;2024-02-26T11:56:21;100221.31;;;18.90;60.17
77161;BME280;66135;0.000;0.000;2024-02-26T12:01:49;100226.72;;;18.90;60.18
77161;BME280;66135;0.000;0.000;2024-02-26T12:04:19;100228.63;;;18.89;60.04
77161;BME280;66135;0.000;0.000;2024-02-26T12:07:01;100226.94;;;18.88;60.17
77161;BME280;66135;0.000;0.000;2024-02-26T12:09:38;100228.63;;;18.89;59.93
77161;BME280;66135;0.000;0.000;2024-02-26T12:12:06;100231.34;;;18.89;59.83
77161;BME280;66135;0.000;0.000;2024-02-26T12:14:39;100229.66;;;18.88;60.12
77161;BME280;66135;0.000;0.000;2024-02-26T12:17:07;100245.72;;;18.90;59.97
77161;BME280;66135;0.000;0.000;2024-02-26T12:19:43;100243.88;;;18.90;60.00
77161;BME280;66135;0.000;0.000;2024-02-26T12:22:12;100248.44;;;18.90;60.10
77161;BME280;66135;0.000;0.000;2024-02-26T12:24:38;100249.28;;;18.90;59.77
77161;BME280;66135;0.000;0.000;2024-02-26T12:27:03;100248.44;;;18.90;60.14
77161;BME280;66135;0.000;0.000;2024-02-26T12:29:29;100243.88;;;18.90;60.14
77161;BME280;66135;0.000;0.000;2024-02-26T12:31:54;100252.00;;;18.90;60.10
77161;BME280;66135;0.000;0.000;2024-02-26T12:34:20;100259.31;;;18.90;59.92
77161;BME280;66135;0.000;0.000;2024-02-26T12:36:45;100259.13;;;18.91;59.85
77161;BME280;66135;0.000;0.000;2024-02-26T12:39:10;100269.16;;;18.91;59.91
77161;BME280;66135;0.000;0.000;2024-02-26T12:41:38;100273.72;;;18.90;59.91
77161;BME280;66135;0.000;0.000;2024-02-26T12:44:03;100278.94;;;18.92;59.94
77161;BME280;66135;0.000;0.000;2024-02-26T12:46:29;100279.16;;;18.90;60.06
77161;BME280;66135;0.000;0.000;2024-02-26T12:48:56;100280.84;;;18.91;59.87
77161;BME280;66135;0.000;0.000;2024-02-26T12:51:27;100280.00;;;18.91;60.00
77161;BME280;66135;0.000;0.000;2024-02-26T12:53:55;100289.00;;;18.91;60.06
77161;BME280;66135;0.000;0.000;2024-02-26T12:56:21;100291.72;;;18.91;59.93
77161;BME280;66135;0.000;0.000;2024-02-26T12:58:48;100289.00;;;18.91;59.94
77161;BME280;66135;0.000;0.000;2024-02-26T13:01:17;100300.88;;;18.90;60.05
77161;BME280;66135;0.000;0.000;2024-02-26T13:03:44;100299.00;;;18.91;60.04
77161;BME280;66135;0.000;0.000;2024-02-26T13:06:09;100301.72;;;18.91;60.11
77161;BME280;66135;0.000;0.000;2024-02-26T13:08:35;100309.00;;;18.90;60.14
77161;BME280;66135;0.000;0.000;2024-02-26T13:11:01;100324.44;;;18.90;60.15
77161;BME280;66135;0.000;0.000;2024-02-26T13:13:26;100312.56;;;18.91;59.93
77161;BME280;66135;0.000;0.000;2024-02-26T13:16:02;100324.28;;;18.91;59.97
77161;BME280;66135;0.000;0.000;2024-02-26T13:18:29;100326.13;;;18.91;59.72
77161;BME280;66135;0.000;0.000;2024-02-26T13:21:15;100331.56;;;18.91;60.02
77161;BME280;66135;0.000;0.000;2024-02-26T13:23:41;100335.94;;;18.92;59.79